createdAt,value
2023-04-30T00:00:03.528Z,25.46
2023-04-30T00:01:03.494Z,25.46
2023-04-30T00:02:03.530Z,25.45
2023-04-30T00:03:03.561Z,25.45
2023-04-30T00:04:03.522Z,25.45
2023-04-30T00:05:03.528Z,25.45
2023-04-30T00:06:03.549Z,25.44
2023-04-30T00:07:03.546Z,25.44
2023-04-30T00:08:03.588Z,25.44
2023-04-30T00:09:03.595Z,25.45
2023-04-30T00:10:03.553Z,25.45
2023-04-30T00:11:03.556Z,25.44
2023-04-30T00:12:03.640Z,25.44
2023-04-30T00:13:03.604Z,25.44
2023-04-30T00:14:03.602Z,25.43
2023-04-30T00:15:03.576Z,25.43
2023-04-30T00:16:03.633Z,25.42
2023-04-30T00:17:03.598Z,25.43
2023-04-30T00:18:03.652Z,25.42
2023-04-30T00:19:03.608Z,25.42
2023-04-30T00:20:03.625Z,25.42
2023-04-30T00:21:03.619Z,25.41
2023-04-30T00:22:03.630Z,25.41
2023-04-30T00:23:03.639Z,25.41
2023-04-30T00:24:03.601Z,25.41
2023-04-30T00:25:03.647Z,25.40
2023-04-30T00:26:03.674Z,25.40
2023-04-30T00:27:03.585Z,25.39
2023-04-30T00:28:03.664Z,25.40
2023-04-30T00:29:03.598Z,25.39
2023-04-30T00:30:03.657Z,25.38
2023-04-30T00:31:03.582Z,25.39
2023-04-30T00:32:03.719Z,25.40
2023-04-30T00:33:03.681Z,25.39
2023-04-30T00:34:03.605Z,25.39
2023-04-30T00:35:03.609Z,25.39
2023-04-30T00:36:03.651Z,25.39
2023-04-30T00:37:03.653Z,25.38
2023-04-30T00:38:03.676Z,25.39
2023-04-30T00:39:03.610Z,25.38
2023-04-30T00:40:03.649Z,25.38
2023-04-30T00:41:03.609Z,25.38
2023-04-30T00:42:03.666Z,25.38
2023-04-30T00:43:03.664Z,25.38
2023-04-30T00:44:03.680Z,25.39
2023-04-30T00:45:03.680Z,25.38
2023-04-30T00:46:03.756Z,25.37
2023-04-30T00:47:03.694Z,25.37
2023-04-30T00:48:03.738Z,25.36
2023-04-30T00:49:03.792Z,25.36
2023-04-30T00:50:03.726Z,25.36
2023-04-30T00:51:03.774Z,25.36
2023-04-30T00:52:03.731Z,25.36
2023-04-30T00:53:03.728Z,25.36
2023-04-30T00:54:04.258Z,25.36
2023-04-30T00:55:03.712Z,25.35
2023-04-30T00:56:03.710Z,25.35
2023-04-30T00:57:03.814Z,25.35
2023-04-30T00:58:03.743Z,25.35
2023-04-30T00:59:03.777Z,25.35
2023-04-30T01:00:03.783Z,25.34
2023-04-30T01:01:03.814Z,25.34
2023-04-30T01:02:03.860Z,25.33
2023-04-30T01:03:04.007Z,25.32
2023-04-30T01:04:03.878Z,25.32
2023-04-30T01:05:03.877Z,25.31
2023-04-30T01:06:03.931Z,25.32
2023-04-30T01:07:03.865Z,25.31
2023-04-30T01:08:03.912Z,25.31
2023-04-30T01:09:03.914Z,25.31
2023-04-30T01:10:03.932Z,25.31
2023-04-30T01:11:03.880Z,25.31
2023-04-30T01:12:03.863Z,25.31
2023-04-30T01:13:03.931Z,25.31
2023-04-30T01:14:03.934Z,25.31
2023-04-30T01:15:03.944Z,25.31
2023-04-30T01:16:03.943Z,25.31
2023-04-30T01:17:03.983Z,25.31
2023-04-30T01:18:03.995Z,25.30
2023-04-30T01:19:04.070Z,25.28
2023-04-30T01:20:04.030Z,25.27
2023-04-30T01:21:03.982Z,25.26
2023-04-30T01:22:04.024Z,25.25
2023-04-30T01:23:04.043Z,25.26
2023-04-30T01:24:04.033Z,25.26
2023-04-30T01:25:04.086Z,25.25
2023-04-30T01:26:04.081Z,25.23
2023-04-30T01:27:04.089Z,25.23
2023-04-30T01:28:04.143Z,25.22
2023-04-30T01:29:04.118Z,25.22
2023-04-30T01:30:04.167Z,25.22
2023-04-30T01:31:04.164Z,25.22
2023-04-30T01:32:04.232Z,25.22
2023-04-30T01:33:04.351Z,25.22
2023-04-30T01:34:04.169Z,25.22
2023-04-30T01:35:04.189Z,25.22
2023-04-30T01:36:04.243Z,25.23
2023-04-30T01:37:04.255Z,25.23
2023-04-30T01:38:04.259Z,25.23
2023-04-30T01:39:04.239Z,25.24
2023-04-30T01:40:04.235Z,25.25
2023-04-30T01:41:04.344Z,25.25
2023-04-30T01:42:04.230Z,25.25
2023-04-30T01:43:04.308Z,25.24
2023-04-30T01:44:04.330Z,25.23
2023-04-30T01:45:04.390Z,25.24
2023-04-30T01:46:04.385Z,25.24
2023-04-30T01:47:04.413Z,25.24
2023-04-30T01:48:04.362Z,25.24
2023-04-30T01:49:04.409Z,25.24
2023-04-30T01:50:04.428Z,25.23
2023-04-30T01:51:04.408Z,25.23
2023-04-30T01:52:04.449Z,25.23
2023-04-30T01:53:04.569Z,25.22
2023-04-30T01:54:04.453Z,25.22
2023-04-30T01:55:04.452Z,25.22
2023-04-30T01:56:04.492Z,25.21
2023-04-30T01:57:04.516Z,25.21
2023-04-30T01:58:04.522Z,25.20
2023-04-30T01:59:04.520Z,25.19
2023-04-30T02:00:04.526Z,25.18
2023-04-30T02:01:04.580Z,25.19
2023-04-30T02:02:04.534Z,25.19
2023-04-30T02:03:04.695Z,25.18
2023-04-30T02:04:05.166Z,25.18
2023-04-30T02:05:04.652Z,25.19
2023-04-30T02:06:04.690Z,25.19
2023-04-30T02:07:04.647Z,25.19
2023-04-30T02:08:04.658Z,25.18
2023-04-30T02:09:04.672Z,25.19
2023-04-30T02:10:04.770Z,25.19
2023-04-30T02:11:04.669Z,25.19
2023-04-30T02:12:04.774Z,25.17
2023-04-30T02:13:04.792Z,25.17
2023-04-30T02:14:04.798Z,25.17
2023-04-30T02:15:04.794Z,25.18
2023-04-30T02:16:04.849Z,25.18
2023-04-30T02:17:04.845Z,25.17
2023-04-30T02:18:04.917Z,25.18
2023-04-30T02:19:04.881Z,25.18
2023-04-30T02:20:05.709Z,25.18
2023-04-30T02:21:04.971Z,25.18
2023-04-30T02:22:04.908Z,25.18
2023-04-30T02:23:05.674Z,25.18
2023-04-30T02:24:04.968Z,25.19
2023-04-30T02:25:05.010Z,25.18
2023-04-30T02:26:04.999Z,25.17
2023-04-30T02:27:05.044Z,25.17
2023-04-30T02:28:05.065Z,25.15
2023-04-30T02:29:05.060Z,25.14
2023-04-30T02:30:05.070Z,25.14
2023-04-30T02:31:05.082Z,25.12
2023-04-30T02:32:05.148Z,25.11
2023-04-30T02:33:05.180Z,25.11
2023-04-30T02:34:05.211Z,25.11
2023-04-30T02:35:05.200Z,25.10
2023-04-30T02:36:05.153Z,25.10
2023-04-30T02:37:05.205Z,25.10
2023-04-30T02:38:05.220Z,25.09
2023-04-30T02:39:05.266Z,25.09
2023-04-30T02:40:05.271Z,25.08
2023-04-30T02:41:05.285Z,25.08
2023-04-30T02:42:05.294Z,25.08
2023-04-30T02:43:05.298Z,25.07
2023-04-30T02:44:05.320Z,25.07
2023-04-30T02:45:05.355Z,25.07
2023-04-30T02:46:05.387Z,25.07
2023-04-30T02:47:05.366Z,25.06
2023-04-30T02:48:05.423Z,25.07
2023-04-30T02:49:05.436Z,25.07
2023-04-30T02:50:05.444Z,25.08
2023-04-30T02:51:05.468Z,25.07
2023-04-30T02:52:05.459Z,25.07
2023-04-30T02:53:05.468Z,25.06
2023-04-30T02:54:05.527Z,25.06
2023-04-30T02:55:05.538Z,25.05
2023-04-30T02:56:05.550Z,25.05
2023-04-30T02:57:05.525Z,25.05
2023-04-30T02:58:05.610Z,25.04
2023-04-30T02:59:05.712Z,25.05
2023-04-30T03:00:05.629Z,25.04
2023-04-30T03:01:05.669Z,25.04
2023-04-30T03:02:05.696Z,25.05
2023-04-30T03:03:05.769Z,25.05
2023-04-30T03:04:05.716Z,25.06
2023-04-30T03:05:05.717Z,25.06
2023-04-30T03:06:05.785Z,25.06
2023-04-30T03:07:05.764Z,25.06
2023-04-30T03:08:05.764Z,25.06
2023-04-30T03:09:05.835Z,25.06
2023-04-30T03:10:05.801Z,25.05
2023-04-30T03:11:05.827Z,25.06
2023-04-30T03:12:05.905Z,25.04
2023-04-30T03:13:05.926Z,25.03
2023-04-30T03:14:05.882Z,25.04
2023-04-30T03:15:05.918Z,25.03
2023-04-30T03:16:05.967Z,25.03
2023-04-30T03:17:06.028Z,25.02
2023-04-30T03:18:06.051Z,25.01
2023-04-30T03:19:06.056Z,25.02
2023-04-30T03:20:06.069Z,25.02
2023-04-30T03:21:06.070Z,25.01
2023-04-30T03:22:06.107Z,25.02
2023-04-30T03:23:06.135Z,25.03
2023-04-30T03:24:06.211Z,25.03
2023-04-30T03:25:06.226Z,25.03
2023-04-30T03:26:06.276Z,25.02
2023-04-30T03:27:06.211Z,25.02
2023-04-30T03:28:06.221Z,25.02
2023-04-30T03:29:06.319Z,25.01
2023-04-30T03:30:06.329Z,25.01
2023-04-30T03:31:06.381Z,25.01
2023-04-30T03:32:06.344Z,25.01
2023-04-30T03:33:06.406Z,25.00
2023-04-30T03:34:06.404Z,24.99
2023-04-30T03:35:06.430Z,25.00
2023-04-30T03:36:06.488Z,25.00
2023-04-30T03:37:06.492Z,25.00
2023-04-30T03:38:06.488Z,25.01
2023-04-30T03:39:06.546Z,25.01
2023-04-30T03:40:06.571Z,25.00
2023-04-30T03:41:06.576Z,25.00
2023-04-30T03:42:06.562Z,25.00
2023-04-30T03:43:06.665Z,24.99
2023-04-30T03:44:06.629Z,24.99
2023-04-30T03:45:06.671Z,24.99
2023-04-30T03:46:06.695Z,24.99
2023-04-30T03:47:06.758Z,25.00
2023-04-30T03:48:06.798Z,24.99
2023-04-30T03:49:06.829Z,24.98
2023-04-30T03:50:06.785Z,24.98
2023-04-30T03:51:06.824Z,24.98
2023-04-30T03:52:06.900Z,24.96
2023-04-30T03:53:06.902Z,24.96
2023-04-30T03:54:06.919Z,24.96
2023-04-30T03:55:06.954Z,24.96
2023-04-30T03:56:06.996Z,24.95
2023-04-30T03:57:06.955Z,24.96
2023-04-30T03:58:07.034Z,24.96
2023-04-30T03:59:07.086Z,24.95
2023-04-30T04:00:07.122Z,24.95
2023-04-30T04:01:07.116Z,24.95
2023-04-30T04:02:07.204Z,24.96
2023-04-30T04:03:07.326Z,24.95
2023-04-30T04:04:07.360Z,24.96
2023-04-30T04:05:07.257Z,24.97
2023-04-30T04:06:07.310Z,24.97
2023-04-30T04:07:07.302Z,24.97
2023-04-30T04:08:07.333Z,24.97
2023-04-30T04:09:07.356Z,24.96
2023-04-30T04:10:07.371Z,24.96
2023-04-30T04:11:07.436Z,24.97
2023-04-30T04:12:07.497Z,24.96
2023-04-30T04:13:07.693Z,24.96
2023-04-30T04:14:07.512Z,24.96
2023-04-30T04:15:07.583Z,24.95
2023-04-30T04:16:07.679Z,24.94
2023-04-30T04:17:07.638Z,24.95
2023-04-30T04:18:07.771Z,24.95
2023-04-30T04:19:07.665Z,24.94
2023-04-30T04:20:07.739Z,24.94
2023-04-30T04:21:07.782Z,24.94
2023-04-30T04:22:07.833Z,24.94
2023-04-30T04:23:07.861Z,24.94
2023-04-30T04:24:07.895Z,24.93
2023-04-30T04:25:07.957Z,24.93
2023-04-30T04:26:07.999Z,24.93
2023-04-30T04:27:08.074Z,24.93
2023-04-30T04:28:08.072Z,24.92
2023-04-30T04:29:08.067Z,24.92
2023-04-30T04:30:08.120Z,24.92
2023-04-30T04:31:08.164Z,24.91
2023-04-30T04:32:08.172Z,24.91
2023-04-30T04:33:08.236Z,24.92
2023-04-30T04:34:08.202Z,24.92
2023-04-30T04:35:08.384Z,24.91
2023-04-30T04:36:08.326Z,24.91
2023-04-30T04:37:08.382Z,24.92
2023-04-30T04:38:08.369Z,24.92
2023-04-30T04:39:08.447Z,24.92
2023-04-30T04:40:09.275Z,24.92
2023-04-30T04:41:08.457Z,24.92
2023-04-30T04:42:08.512Z,24.91
2023-04-30T04:43:08.509Z,24.92
2023-04-30T04:44:08.502Z,24.91
2023-04-30T04:45:08.584Z,24.90
2023-04-30T04:46:08.611Z,24.91
2023-04-30T04:47:08.700Z,24.92
2023-04-30T04:48:08.794Z,24.92
2023-04-30T04:49:08.723Z,24.91
2023-04-30T04:50:08.773Z,24.92
2023-04-30T04:51:08.779Z,24.92
2023-04-30T04:52:08.862Z,24.91
2023-04-30T04:53:08.879Z,24.91
2023-04-30T04:54:08.900Z,24.91
2023-04-30T04:55:08.964Z,24.90
2023-04-30T04:56:08.990Z,24.92
2023-04-30T04:57:09.018Z,24.91
2023-04-30T04:58:09.020Z,24.91
2023-04-30T04:59:09.095Z,24.90
2023-04-30T05:00:09.098Z,24.90
2023-04-30T05:01:09.120Z,24.91
2023-04-30T05:02:09.198Z,24.92
2023-04-30T05:03:09.406Z,24.92
2023-04-30T05:04:09.273Z,24.91
2023-04-30T05:05:09.268Z,24.93
2023-04-30T05:06:09.299Z,24.92
2023-04-30T05:07:09.358Z,24.91
2023-04-30T05:08:09.408Z,24.92
2023-04-30T05:09:09.491Z,24.92
2023-04-30T05:10:09.494Z,24.92
2023-04-30T05:11:09.477Z,24.92
2023-04-30T05:12:09.538Z,24.92
2023-04-30T05:13:09.538Z,24.92
2023-04-30T05:14:09.605Z,24.92
2023-04-30T05:15:09.609Z,24.92
2023-04-30T05:16:09.652Z,24.93
2023-04-30T05:17:09.652Z,24.92
2023-04-30T05:18:09.813Z,24.92
2023-04-30T05:19:09.904Z,24.91
2023-04-30T05:20:09.808Z,24.92
2023-04-30T05:21:09.806Z,24.92
2023-04-30T05:22:09.788Z,24.92
2023-04-30T05:23:10.798Z,24.92
2023-04-30T05:24:09.881Z,24.93
2023-04-30T05:25:09.923Z,24.91
2023-04-30T05:26:09.921Z,24.93
2023-04-30T05:27:10.069Z,24.92
2023-04-30T05:28:10.010Z,24.93
2023-04-30T05:29:10.060Z,24.92
2023-04-30T05:30:10.075Z,24.93
2023-04-30T05:31:10.045Z,24.93
2023-04-30T05:32:10.268Z,24.94
2023-04-30T05:33:10.283Z,24.94
2023-04-30T05:34:10.189Z,24.95
2023-04-30T05:35:10.256Z,24.94
2023-04-30T05:36:10.198Z,24.93
2023-04-30T05:37:10.281Z,24.93
2023-04-30T05:38:10.284Z,24.94
2023-04-30T05:39:10.319Z,24.95
2023-04-30T05:40:10.335Z,24.95
2023-04-30T05:41:10.352Z,24.94
2023-04-30T05:42:10.398Z,24.95
2023-04-30T05:43:10.377Z,24.96
2023-04-30T05:44:10.463Z,24.95
2023-04-30T05:45:10.470Z,24.95
2023-04-30T05:46:10.564Z,24.96
2023-04-30T05:47:10.562Z,24.96
2023-04-30T05:48:10.596Z,24.96
2023-04-30T05:49:10.585Z,24.97
2023-04-30T05:50:10.666Z,24.96
2023-04-30T05:51:10.805Z,24.96
2023-04-30T05:52:10.677Z,24.97
2023-04-30T05:53:10.695Z,24.98
2023-04-30T05:54:10.722Z,24.97
2023-04-30T05:55:10.743Z,24.98
2023-04-30T05:56:10.806Z,24.98
2023-04-30T05:57:10.838Z,24.98
2023-04-30T05:58:10.864Z,24.99
2023-04-30T05:59:10.934Z,25.00
2023-04-30T06:00:10.947Z,24.99
2023-04-30T06:01:10.987Z,25.00
2023-04-30T06:02:11.077Z,25.00
2023-04-30T06:03:11.128Z,25.00
2023-04-30T06:04:11.076Z,25.02
2023-04-30T06:05:11.166Z,25.02
2023-04-30T06:06:11.186Z,25.04
2023-04-30T06:07:11.139Z,25.04
2023-04-30T06:08:11.153Z,25.04
2023-04-30T06:09:11.212Z,25.06
2023-04-30T06:10:11.217Z,25.06
2023-04-30T06:11:11.279Z,25.07
2023-04-30T06:12:11.280Z,25.07
2023-04-30T06:13:11.286Z,25.08
2023-04-30T06:14:11.350Z,25.08
2023-04-30T06:15:11.350Z,25.09
2023-04-30T06:16:11.434Z,25.11
2023-04-30T06:17:11.401Z,25.12
2023-04-30T06:18:11.402Z,25.12
2023-04-30T06:19:11.451Z,25.14
2023-04-30T06:20:11.434Z,25.16
2023-04-30T06:21:11.518Z,25.16
2023-04-30T06:22:11.507Z,25.17
2023-04-30T06:23:11.516Z,25.18
2023-04-30T06:24:11.538Z,25.19
2023-04-30T06:25:11.552Z,25.20
2023-04-30T06:26:11.582Z,25.21
2023-04-30T06:27:11.596Z,25.22
2023-04-30T06:28:11.643Z,25.24
2023-04-30T06:29:11.604Z,25.27
2023-04-30T06:30:11.657Z,25.29
2023-04-30T06:31:11.678Z,25.31
2023-04-30T06:32:11.718Z,25.31
2023-04-30T06:33:11.723Z,25.31
2023-04-30T06:34:11.732Z,25.31
2023-04-30T06:35:11.747Z,25.29
2023-04-30T06:36:11.799Z,25.29
2023-04-30T06:37:11.748Z,25.28
2023-04-30T06:38:11.821Z,25.28
2023-04-30T06:39:11.767Z,25.30
2023-04-30T06:40:11.837Z,25.31
2023-04-30T06:41:11.840Z,25.30
2023-04-30T06:42:11.849Z,25.30
2023-04-30T06:43:11.846Z,25.31
2023-04-30T06:44:11.860Z,25.31
2023-04-30T06:45:11.833Z,25.32
2023-04-30T06:46:11.983Z,25.34
2023-04-30T06:47:11.828Z,25.35
2023-04-30T06:48:11.837Z,25.36
2023-04-30T06:49:11.902Z,25.37
2023-04-30T06:50:11.896Z,25.38
2023-04-30T06:51:11.905Z,25.39
2023-04-30T06:52:11.851Z,25.40
2023-04-30T06:53:11.922Z,25.42
2023-04-30T06:54:11.869Z,25.43
2023-04-30T06:55:11.942Z,25.45
2023-04-30T06:56:11.876Z,25.46
2023-04-30T06:57:11.916Z,25.47
2023-04-30T06:58:11.893Z,25.49
2023-04-30T06:59:11.911Z,25.50
2023-04-30T07:00:11.911Z,25.51
2023-04-30T07:01:11.930Z,25.52
2023-04-30T07:02:11.995Z,25.53
2023-04-30T07:03:12.082Z,25.54
2023-04-30T07:04:11.996Z,25.56
2023-04-30T07:05:12.009Z,25.57
2023-04-30T07:06:12.058Z,25.58
2023-04-30T07:07:12.080Z,25.60
2023-04-30T07:08:12.071Z,25.61
2023-04-30T07:09:18.779Z,25.63
2023-04-30T07:10:12.065Z,25.65
2023-04-30T07:11:12.064Z,25.67
2023-04-30T07:12:12.115Z,25.67
2023-04-30T07:13:12.054Z,25.68
2023-04-30T07:14:12.069Z,25.70
2023-04-30T07:15:13.272Z,25.70
2023-04-30T07:16:12.103Z,25.72
2023-04-30T07:17:12.025Z,25.73
2023-04-30T07:18:12.109Z,25.75
2023-04-30T07:19:12.032Z,25.78
2023-04-30T07:20:12.035Z,25.80
2023-04-30T07:21:12.019Z,25.79
2023-04-30T07:22:12.021Z,25.79
2023-04-30T07:23:12.818Z,25.78
2023-04-30T07:24:11.964Z,25.78
2023-04-30T07:25:11.981Z,25.78
2023-04-30T07:26:11.973Z,25.78
2023-04-30T07:27:11.937Z,25.79
2023-04-30T07:28:11.966Z,25.79
2023-04-30T07:29:11.967Z,25.79
2023-04-30T07:30:11.963Z,25.79
2023-04-30T07:31:12.042Z,25.79
2023-04-30T07:32:11.932Z,25.78
2023-04-30T07:33:11.956Z,25.78
2023-04-30T07:34:11.987Z,25.78
2023-04-30T07:35:12.029Z,25.77
2023-04-30T07:36:12.116Z,25.77
2023-04-30T07:37:12.163Z,25.77
2023-04-30T07:38:12.234Z,25.77
2023-04-30T07:39:12.270Z,25.77
2023-04-30T07:40:15.248Z,25.77
2023-04-30T07:41:13.389Z,25.77
2023-04-30T07:42:12.370Z,25.79
2023-04-30T07:43:12.361Z,25.80
2023-04-30T07:44:12.368Z,25.80
2023-04-30T07:45:12.326Z,25.80
2023-04-30T07:46:12.456Z,25.80
2023-04-30T07:47:12.421Z,25.80
2023-04-30T07:48:12.333Z,25.80
2023-04-30T07:49:12.408Z,25.81
2023-04-30T07:50:12.446Z,25.82
2023-04-30T07:51:12.546Z,25.83
2023-04-30T07:52:12.512Z,25.83
2023-04-30T07:53:12.583Z,25.84
2023-04-30T07:54:12.657Z,25.84
2023-04-30T07:55:12.728Z,25.84
2023-04-30T07:56:12.785Z,25.85
2023-04-30T07:57:12.828Z,25.85
2023-04-30T07:58:12.885Z,25.85
2023-04-30T07:59:12.915Z,25.85
2023-04-30T08:00:12.993Z,25.85
2023-04-30T08:01:13.055Z,25.86
2023-04-30T08:02:13.074Z,25.86
2023-04-30T08:03:13.178Z,25.86
2023-04-30T08:04:13.259Z,25.87
2023-04-30T08:05:13.229Z,25.87
2023-04-30T08:06:13.293Z,25.87
2023-04-30T08:07:13.347Z,25.87
2023-04-30T08:08:13.369Z,25.87
2023-04-30T08:09:13.390Z,25.88
2023-04-30T08:10:13.477Z,25.88
2023-04-30T08:11:13.536Z,25.89
2023-04-30T08:12:13.563Z,25.89
2023-04-30T08:13:13.595Z,25.89
2023-04-30T08:14:13.638Z,25.90
2023-04-30T08:15:13.759Z,25.90
2023-04-30T08:16:13.793Z,25.91
2023-04-30T08:17:13.840Z,25.90
2023-04-30T08:18:13.922Z,25.91
2023-04-30T08:19:13.886Z,25.92
2023-04-30T08:20:13.950Z,25.92
2023-04-30T08:21:14.016Z,25.93
2023-04-30T08:22:14.062Z,25.93
2023-04-30T08:23:14.069Z,25.93
2023-04-30T08:24:14.110Z,25.93
2023-04-30T08:25:14.180Z,25.93
2023-04-30T08:26:14.235Z,25.92
2023-04-30T08:27:14.318Z,25.93
2023-04-30T08:28:14.368Z,25.94
2023-04-30T08:29:14.356Z,25.93
2023-04-30T08:30:14.436Z,25.94
2023-04-30T08:31:14.468Z,25.95
2023-04-30T08:32:14.638Z,25.95
2023-04-30T08:33:14.547Z,25.95
2023-04-30T08:34:14.611Z,25.95
2023-04-30T08:35:14.665Z,25.96
2023-04-30T08:36:14.672Z,25.96
2023-04-30T08:37:14.730Z,25.97
2023-04-30T08:38:14.788Z,25.97
2023-04-30T08:39:14.809Z,25.97
2023-04-30T08:40:14.850Z,25.98
2023-04-30T08:41:14.896Z,26.00
2023-04-30T08:42:14.920Z,26.00
2023-04-30T08:43:14.969Z,26.01
2023-04-30T08:44:14.988Z,26.03
2023-04-30T08:45:15.038Z,26.03
2023-04-30T08:46:15.195Z,26.04
2023-04-30T08:47:15.133Z,26.05
2023-04-30T08:48:15.306Z,26.06
2023-04-30T08:49:15.186Z,26.06
2023-04-30T08:50:15.236Z,26.07
2023-04-30T08:51:15.325Z,26.09
2023-04-30T08:52:15.327Z,26.10
2023-04-30T08:53:15.400Z,26.14
2023-04-30T08:54:15.405Z,26.17
2023-04-30T08:55:15.438Z,26.19
2023-04-30T08:56:15.539Z,26.21
2023-04-30T08:57:15.533Z,26.22
2023-04-30T08:58:15.526Z,26.23
2023-04-30T08:59:15.590Z,26.25
2023-04-30T09:00:15.586Z,26.26
2023-04-30T09:01:15.695Z,26.26
2023-04-30T09:02:15.668Z,26.28
2023-04-30T09:03:15.760Z,26.30
2023-04-30T09:04:15.814Z,26.31
2023-04-30T09:05:15.742Z,26.31
2023-04-30T09:06:15.862Z,26.33
2023-04-30T09:07:15.851Z,26.34
2023-04-30T09:08:15.907Z,26.35
2023-04-30T09:09:15.911Z,26.34
2023-04-30T09:10:15.917Z,26.34
2023-04-30T09:11:15.976Z,26.35
2023-04-30T09:12:18.667Z,26.36
2023-04-30T09:13:15.969Z,26.38
2023-04-30T09:14:16.000Z,26.38
2023-04-30T09:15:15.987Z,26.39
2023-04-30T09:16:16.046Z,26.41
2023-04-30T09:17:15.972Z,26.42
2023-04-30T09:18:16.022Z,26.42
2023-04-30T09:19:15.930Z,26.42
2023-04-30T09:20:15.989Z,26.44
2023-04-30T09:21:15.919Z,26.45
2023-04-30T09:22:15.954Z,26.46
2023-04-30T09:23:15.948Z,26.47
2023-04-30T09:24:16.691Z,26.48
2023-04-30T09:25:15.923Z,26.48
2023-04-30T09:26:15.933Z,26.49
2023-04-30T09:27:15.930Z,26.50
2023-04-30T09:28:15.869Z,26.52
2023-04-30T09:29:15.884Z,26.53
2023-04-30T09:30:15.906Z,26.54
2023-04-30T09:31:15.901Z,26.60
2023-04-30T09:32:15.863Z,26.64
2023-04-30T09:33:15.884Z,26.64
2023-04-30T09:34:15.893Z,26.64
2023-04-30T09:35:15.886Z,26.65
2023-04-30T09:36:15.823Z,26.65
2023-04-30T09:37:15.818Z,26.64
2023-04-30T09:38:15.847Z,26.63
2023-04-30T09:39:16.300Z,26.63
2023-04-30T09:40:15.816Z,26.63
2023-04-30T09:41:15.825Z,26.61
2023-04-30T09:42:15.866Z,26.62
2023-04-30T09:43:15.872Z,26.62
2023-04-30T09:44:15.842Z,26.62
2023-04-30T09:45:15.867Z,26.63
2023-04-30T09:46:15.879Z,26.63
2023-04-30T09:47:15.868Z,26.63
2023-04-30T09:48:17.688Z,26.64
2023-04-30T09:49:15.900Z,26.64
2023-04-30T09:50:15.933Z,26.64
2023-04-30T09:51:15.901Z,26.65
2023-04-30T09:52:15.906Z,26.65
2023-04-30T09:53:15.911Z,26.65
2023-04-30T09:54:15.926Z,26.65
2023-04-30T09:55:15.928Z,26.65
2023-04-30T09:56:15.971Z,26.66
2023-04-30T09:57:15.985Z,26.69
2023-04-30T09:58:16.001Z,26.70
2023-04-30T09:59:15.951Z,26.72
2023-04-30T10:00:16.001Z,26.73
2023-04-30T10:01:16.026Z,26.74
2023-04-30T10:02:15.969Z,26.75
2023-04-30T10:03:15.981Z,26.75
2023-04-30T10:04:16.048Z,26.77
2023-04-30T10:05:15.999Z,26.76
2023-04-30T10:06:16.036Z,26.76
2023-04-30T10:07:17.103Z,26.77
2023-04-30T10:08:15.949Z,26.76
2023-04-30T10:09:15.964Z,26.76
2023-04-30T10:10:16.001Z,26.76
2023-04-30T10:11:15.953Z,26.76
2023-04-30T10:12:15.943Z,26.75
2023-04-30T10:13:15.951Z,26.75
2023-04-30T10:14:15.953Z,26.75
2023-04-30T10:15:15.957Z,26.74
2023-04-30T10:16:16.066Z,26.74
2023-04-30T10:17:16.015Z,26.73
2023-04-30T10:18:15.982Z,26.73
2023-04-30T10:19:15.988Z,26.72
2023-04-30T10:20:15.999Z,26.73
2023-04-30T10:21:16.002Z,26.73
2023-04-30T10:22:16.011Z,26.73
2023-04-30T10:23:16.013Z,26.73
2023-04-30T10:24:15.974Z,26.74
2023-04-30T10:25:16.375Z,26.73
2023-04-30T10:26:16.038Z,26.73
2023-04-30T10:27:16.006Z,26.73
2023-04-30T10:28:15.994Z,26.72
2023-04-30T10:29:15.993Z,26.73
2023-04-30T10:30:16.005Z,26.72
2023-04-30T10:31:16.015Z,26.72
2023-04-30T10:32:16.109Z,26.73
2023-04-30T10:33:16.998Z,26.73
2023-04-30T10:34:15.987Z,26.73
2023-04-30T10:35:16.014Z,26.73
2023-04-30T10:36:16.006Z,26.74
2023-04-30T10:37:16.020Z,26.73
2023-04-30T10:38:16.011Z,26.74
2023-04-30T10:39:16.016Z,26.74
2023-04-30T10:40:16.063Z,26.73
2023-04-30T10:41:16.091Z,26.74
2023-04-30T10:42:16.149Z,26.75
2023-04-30T10:43:16.154Z,26.75
2023-04-30T10:44:16.151Z,26.76
2023-04-30T10:45:16.180Z,26.76
2023-04-30T10:46:16.271Z,26.77
2023-04-30T10:47:16.230Z,26.78
2023-04-30T10:48:16.263Z,26.78
2023-04-30T10:49:16.229Z,26.79
2023-04-30T10:50:16.245Z,26.79
2023-04-30T10:51:16.221Z,26.80
2023-04-30T10:52:16.273Z,26.80
2023-04-30T10:53:16.226Z,26.80
2023-04-30T10:54:16.237Z,26.80
2023-04-30T10:55:16.280Z,26.81
2023-04-30T10:56:16.297Z,26.81
2023-04-30T10:57:16.296Z,26.80
2023-04-30T10:58:16.286Z,26.81
2023-04-30T10:59:16.316Z,26.81
2023-04-30T11:00:16.325Z,26.81
2023-04-30T11:01:16.295Z,26.81
2023-04-30T11:02:16.285Z,26.82
2023-04-30T11:03:16.283Z,26.82
2023-04-30T11:04:16.400Z,26.81
2023-04-30T11:05:16.324Z,26.81
2023-04-30T11:06:16.369Z,26.82
2023-04-30T11:07:16.316Z,26.83
2023-04-30T11:08:16.329Z,26.83
2023-04-30T11:09:16.336Z,26.84
2023-04-30T11:10:16.403Z,26.84
2023-04-30T11:11:16.440Z,26.85
2023-04-30T11:12:16.456Z,26.85
2023-04-30T11:13:16.507Z,26.86
2023-04-30T11:14:16.486Z,26.86
2023-04-30T11:15:16.472Z,26.86
2023-04-30T11:16:16.568Z,26.86
2023-04-30T11:17:16.488Z,26.86
2023-04-30T11:18:16.498Z,26.86
2023-04-30T11:19:16.528Z,26.86
2023-04-30T11:20:16.516Z,26.86
2023-04-30T11:21:16.516Z,26.87
2023-04-30T11:22:16.577Z,26.86
2023-04-30T11:23:22.260Z,26.87
2023-04-30T11:24:17.497Z,26.88
2023-04-30T11:25:16.545Z,26.87
2023-04-30T11:26:16.560Z,26.88
2023-04-30T11:27:16.499Z,26.88
2023-04-30T11:28:16.576Z,26.89
2023-04-30T11:29:16.554Z,26.89
2023-04-30T11:30:16.484Z,26.89
2023-04-30T11:31:16.545Z,26.90
2023-04-30T11:32:16.449Z,26.90
2023-04-30T11:33:16.545Z,26.90
2023-04-30T11:34:16.506Z,26.90
2023-04-30T11:35:16.575Z,26.91
2023-04-30T11:36:16.621Z,26.91
2023-04-30T11:37:16.626Z,26.91
2023-04-30T11:38:16.671Z,26.92
2023-04-30T11:39:16.677Z,26.92
2023-04-30T11:40:16.697Z,26.93
2023-04-30T11:41:16.795Z,26.92
2023-04-30T11:42:16.861Z,26.92
2023-04-30T11:43:16.872Z,26.93
2023-04-30T11:44:17.052Z,26.93
2023-04-30T11:45:16.994Z,26.93
2023-04-30T11:46:17.067Z,26.93
2023-04-30T11:47:17.110Z,26.93
2023-04-30T11:48:17.116Z,26.94
2023-04-30T11:49:17.141Z,26.94
2023-04-30T11:50:17.239Z,26.94
2023-04-30T11:51:17.277Z,26.95
2023-04-30T11:52:17.357Z,26.95
2023-04-30T11:53:17.397Z,26.95
2023-04-30T11:54:17.410Z,26.96
2023-04-30T11:55:17.507Z,26.96
2023-04-30T11:56:17.532Z,26.96
2023-04-30T11:57:17.583Z,26.97
2023-04-30T11:58:17.632Z,26.97
2023-04-30T11:59:17.732Z,26.97
2023-04-30T12:00:17.731Z,26.98
2023-04-30T12:01:17.754Z,26.98
2023-04-30T12:02:17.862Z,26.98
2023-04-30T12:03:17.958Z,26.98
2023-04-30T12:04:17.920Z,26.98
2023-04-30T12:05:17.882Z,26.99
2023-04-30T12:06:17.918Z,26.98
2023-04-30T12:07:17.961Z,26.98
2023-04-30T12:08:17.998Z,26.97
2023-04-30T12:09:18.045Z,26.98
2023-04-30T12:10:18.088Z,26.98
2023-04-30T12:11:18.151Z,26.98
2023-04-30T12:12:18.142Z,26.98
2023-04-30T12:13:18.180Z,26.98
2023-04-30T12:14:18.215Z,26.98
2023-04-30T12:15:18.255Z,26.98
2023-04-30T12:16:18.317Z,26.98
2023-04-30T12:17:18.276Z,26.98
2023-04-30T12:18:18.449Z,26.98
2023-04-30T12:19:18.357Z,26.98
2023-04-30T12:20:18.393Z,26.98
2023-04-30T12:21:18.418Z,26.97
2023-04-30T12:22:18.467Z,26.97
2023-04-30T12:23:18.477Z,26.98
2023-04-30T12:24:18.534Z,26.98
2023-04-30T12:25:18.540Z,26.99
2023-04-30T12:26:18.571Z,26.98
2023-04-30T12:27:18.561Z,26.97
2023-04-30T12:28:18.572Z,26.97
2023-04-30T12:29:18.670Z,26.97
2023-04-30T12:30:18.646Z,26.97
2023-04-30T12:31:18.700Z,26.96
2023-04-30T12:32:18.888Z,26.97
2023-04-30T12:33:18.732Z,26.96
2023-04-30T12:34:18.708Z,26.96
2023-04-30T12:35:18.777Z,26.96
2023-04-30T12:36:18.789Z,26.96
2023-04-30T12:37:18.793Z,26.96
2023-04-30T12:38:18.856Z,26.97
2023-04-30T12:39:18.838Z,26.97
2023-04-30T12:40:18.852Z,26.97
2023-04-30T12:41:18.884Z,26.97
2023-04-30T12:42:18.911Z,26.97
2023-04-30T12:43:18.918Z,26.98
2023-04-30T12:44:18.973Z,26.97
2023-04-30T12:45:19.004Z,26.97
2023-04-30T12:46:19.097Z,26.98
2023-04-30T12:47:19.084Z,26.98
2023-04-30T12:48:19.158Z,26.97
2023-04-30T12:49:19.207Z,26.98
2023-04-30T12:50:19.232Z,26.98
2023-04-30T12:51:19.368Z,26.97
2023-04-30T12:52:19.294Z,26.97